NCAR-RAP Real-Time Weather Data

Output produced by METARs form (10 April 2020  07:15 UTC)
found at http://weather.rap.ucar.edu/surface/
 
KDBQ 100653Z AUTO 29009KT 10SM CLR M02/M06 A3004 RMK AO2 SLP183 T10171061
KDBQ 100553Z AUTO 29009KT 10SM CLR M01/M07 A3003 RMK AO2 SLP181 T10061067 10022 21006 400721006 53011
KDBQ 100453Z AUTO 32012KT 10SM CLR 00/M07 A3002 RMK AO2 SLP174 T00001067
KDBQ 100353Z AUTO 31008KT 10SM CLR 00/M06 A3001 RMK AO2 SLP170 T00001056
KDBQ 100253Z AUTO 31009KT 10SM FEW070 01/M05 A3000 RMK AO2 SLP168 T00061050 51026
KDBQ 100153Z AUTO 32015G21KT 10SM CLR 01/M06 A2998 RMK AO2 PK WND 31028/0055 SLP163 T00111056
KDBQ 100053Z 32019G26KT 10SM SCT050 02/M06 A2995 RMK AO2 PK WND 31026/0053 SLP152 T00171056
KDBQ 092353Z 32014KT 10SM FEW041 FEW049 SCT080 03/M04 A2992 RMK AO2 PK WND 33032/2257 PRESRR SLP143 60000 T00281044 10072 20006 53026
KDBQ 092253Z 32021G30KT 10SM CLR 03/M04 A2989 RMK AO2 PK WND 31035/2201 SNB05E25 SLP130 P0000 T00331044
KDBQ 092219Z 32024G35KT 3SM -SN FEW024 BKN039 OVC048 02/M02 A2988 RMK AO2 PK WND 31035/2201 SNB05 P0000 T00171022
KDBQ 092216Z 32022G35KT 2SM -SN BKN026 OVC039 02/M02 A2988 RMK AO2 PK WND 31035/2201 SNB05 P0000 T00171022
KDBQ 092212Z 32017G32KT 1 3/4SM -SN SCT026 BKN039 OVC050 02/M02 A2987 RMK AO2 PK WND 31035/2201 SNB05 P0000 T00171022
KDBQ 092153Z 32017G32KT 10SM SCT041 SCT049 BKN080 04/M04 A2986 RMK AO2 PK WND 33034/2102 SNB06E22 SLP120 P0000 T00441039
KDBQ 092124Z 30017G26KT 9SM FEW014 SCT043 BKN070 03/M01 A2985 RMK AO2 PK WND 33034/2102 SNB06E22 P0000 T00331011
KDBQ 092109Z 30023G34KT 1 3/4SM R36/3500VP6000FT -SN FEW012 BKN044 OVC065 02/M02 A2986 RMK AO2 PK WND 33034/2102 SNB06 P0000 T00171022
KDBQ 092053Z 32023G34KT 10SM FEW030 BKN045 BKN065 05/M04 A2984 RMK AO2 PK WND 33045/2018 RAB20E22SNE05B22E37 SLP114 P0000 60000 T00501044 53001
KDBQ 092037Z 32022G33KT 9SM SCT033 BKN050 BKN065 05/M03 A2984 RMK AO2 PK WND 33045/2018 RAB20E22SNE05B22E37 P0000 T00501028
KDBQ 092029Z 33024G39KT 3SM -SN BKN029 BKN043 BKN090 03/M02 A2985 RMK AO2 PK WND 33045/2018 RAB20E22SNE05B22 P0000 T00281022
KDBQ 092003Z 30015KT 4SM R36/3500VP6000FT -SN FEW023 SCT034 BKN047 03/00 A2984 RMK AO2 P0000 T00330000
KDBQ 091953Z 30020G42KT 1SM R36/3500VP6000FT -SN SCT015 BKN046 BKN095 01/M02 A2985 RMK AO2 PK WND 30044/1943 RAB1857E13B47E49SNB49 SLP117 P0000 T00111017
KDBQ 091951Z 31023G44KT 1 1/2SM R36/3500VP6000FT -SN FEW017 BKN044 BKN095 02/M02 A2986 RMK AO2 PK WND 30044/1943 RAB1857E13B47E49SNB49 PRESRR P0000
KDBQ 091853Z 30022G39KT 10SM FEW042 FEW050 07/M04 A2982 RMK AO2 PK WND 28039/1849 RAE01 SLP105 P0000 T00721039
KDBQ 091753Z 31022G35KT 8SM -RA FEW027 BKN033 OVC055 04/M02 A2984 RMK AO2 PK WND 29043/1720 RAB26E28B51SNB28E46 SLP112 P0000 60000 T00391017 10072 20000 55000
KDBQ 091743Z 30020G27KT 5SM -SN BKN033 BKN043 OVC060 04/M01 A2985 RMK AO2 PK WND 29043/1720 RAB26E28SNB28 P0000 T00391006
KDBQ 091737Z 30016G32KT 2SM R36/6000VP6000FT -SN BKN026 BKN039 OVC060 02/M01 A2985 RMK AO2 PK WND 29043/1720 VIS 3/4V5 RAB26E28SNB28 P0000 T00221011
KDBQ 091734Z 30021G37KT 1 3/4SM R36/6000VP6000FT -SN SCT024 BKN036 OVC060 02/M02 A2985 RMK AO2 PK WND 29043/1720 VIS 3/4V5 RAB26E28SNB28 P0000 T00221017
KDBQ 091653Z 28019G28KT 10SM OVC060 06/M05 A2983 RMK AO2 PK WND 31035/1602 SLP106 T00611050
KDBQ 091553Z 30019G29KT 10SM FEW050 SCT060 SCT075 06/M06 A2983 RMK AO2 PK WND 29034/1514 SLP106 T00611056
KDBQ 091453Z 30023G32KT 10SM FEW050 FEW065 06/M04 A2984 RMK AO2 PK WND 30032/1425 SLP110 T00561044 58010
KDBQ 091353Z 30018G25KT 10SM CLR 04/M03 A2985 RMK AO2 SLP115 T00391033
KDBQ 091253Z 29015KT 10SM CLR 02/M03 A2987 RMK AO2 SLP122 T00171028
KDBQ 091153Z 28012KT 10SM CLR 00/M03 A2987 RMK AO2 SLP123 70009 T00001033 10056 20000 53008
KDBQ 091053Z 28009KT 10SM CLR 01/M04 A2985 RMK AO2 SLP116 T00061044
KDBQ 090953Z AUTO 31014KT 10SM CLR 02/M06 A2984 RMK AO2 SLP112 T00221056
KDBQ 090853Z AUTO 30018G27KT 10SM CLR 03/M05 A2985 RMK AO2 PK WND 31030/0802 SLP114 T00281050 50006